sensor_id;sensor_type;location;lat;lon;timestamp;temperature;humidity
5172;DHT22;2605;49.770;9.868;2022-07-10T00:00:33;14.00;99.90
5172;DHT22;2605;49.770;9.868;2022-07-10T00:03:04;14.00;99.90
5172;DHT22;2605;49.770;9.868;2022-07-10T00:05:30;13.90;99.90
5172;DHT22;2605;49.770;9.868;2022-07-10T00:07:56;13.90;99.90
5172;DHT22;2605;49.770;9.868;2022-07-10T00:10:22;13.80;99.90
5172;DHT22;2605;49.770;9.868;2022-07-10T00:12:50;13.70;99.90
5172;DHT22;2605;49.770;9.868;2022-07-10T00:15:17;13.70;99.90
5172;DHT22;2605;49.770;9.868;2022-07-10T00:17:43;13.60;99.90
5172;DHT22;2605;49.770;9.868;2022-07-10T00:20:10;13.60;99.90
5172;DHT22;2605;49.770;9.868;2022-07-10T00:22:37;13.50;99.90
5172;DHT22;2605;49.770;9.868;2022-07-10T00:25:04;13.50;99.90
5172;DHT22;2605;49.770;9.868;2022-07-10T00:27:30;13.50;99.90
5172;DHT22;2605;49.770;9.868;2022-07-10T00:29:56;13.50;99.90
5172;DHT22;2605;49.770;9.868;2022-07-10T00:32:21;13.40;99.90
5172;DHT22;2605;49.770;9.868;2022-07-10T00:34:47;13.40;99.90
5172;DHT22;2605;49.770;9.868;2022-07-10T00:37:12;13.50;99.90
5172;DHT22;2605;49.770;9.868;2022-07-10T00:39:38;13.30;99.90
5172;DHT22;2605;49.770;9.868;2022-07-10T00:42:11;13.40;99.90
5172;DHT22;2605;49.770;9.868;2022-07-10T00:44:37;13.40;99.90
5172;DHT22;2605;49.770;9.868;2022-07-10T00:47:04;13.40;99.90
5172;DHT22;2605;49.770;9.868;2022-07-10T00:49:30;13.40;99.90
5172;DHT22;2605;49.770;9.868;2022-07-10T00:51:56;13.50;99.90
5172;DHT22;2605;49.770;9.868;2022-07-10T00:54:23;13.50;99.90
5172;DHT22;2605;49.770;9.868;2022-07-10T00:56:48;13.50;99.90
5172;DHT22;2605;49.770;9.868;2022-07-10T00:59:14;13.60;99.90
5172;DHT22;2605;49.770;9.868;2022-07-10T01:01:39;13.60;99.90
5172;DHT22;2605;49.770;9.868;2022-07-10T01:04:05;13.60;99.90
5172;DHT22;2605;49.770;9.868;2022-07-10T01:06:31;13.60;99.90
5172;DHT22;2605;49.770;9.868;2022-07-10T01:08:58;13.60;99.90
5172;DHT22;2605;49.770;9.868;2022-07-10T01:11:23;13.60;99.90
5172;DHT22;2605;49.770;9.868;2022-07-10T01:13:49;13.50;99.90
5172;DHT22;2605;49.770;9.868;2022-07-10T01:16:15;13.60;99.90
5172;DHT22;2605;49.770;9.868;2022-07-10T01:18:41;13.50;99.90
5172;DHT22;2605;49.770;9.868;2022-07-10T01:21:06;13.60;99.90
5172;DHT22;2605;49.770;9.868;2022-07-10T01:23:47;13.60;99.90
5172;DHT22;2605;49.770;9.868;2022-07-10T01:26:13;13.50;99.90
5172;DHT22;2605;49.770;9.868;2022-07-10T01:28:38;13.50;99.90
5172;DHT22;2605;49.770;9.868;2022-07-10T01:31:04;13.50;99.90
5172;DHT22;2605;49.770;9.868;2022-07-10T01:33:30;13.50;99.90
5172;DHT22;2605;49.770;9.868;2022-07-10T01:35:55;13.40;99.90
5172;DHT22;2605;49.770;9.868;2022-07-10T01:38:23;13.40;99.90
5172;DHT22;2605;49.770;9.868;2022-07-10T01:40:49;13.40;99.90
5172;DHT22;2605;49.770;9.868;2022-07-10T01:43:14;13.30;99.90
5172;DHT22;2605;49.770;9.868;2022-07-10T01:45:40;13.30;99.90
5172;DHT22;2605;49.770;9.868;2022-07-10T01:48:05;13.30;99.90
5172;DHT22;2605;49.770;9.868;2022-07-10T01:50:31;13.50;99.90
5172;DHT22;2605;49.770;9.868;2022-07-10T01:52:56;13.30;99.90
5172;DHT22;2605;49.770;9.868;2022-07-10T01:55:22;13.30;99.90
5172;DHT22;2605;49.770;9.868;2022-07-10T01:57:48;13.30;99.90
5172;DHT22;2605;49.770;9.868;2022-07-10T02:00:13;13.30;99.90
5172;DHT22;2605;49.770;9.868;2022-07-10T02:02:39;13.30;99.90
5172;DHT22;2605;49.770;9.868;2022-07-10T02:05:05;13.40;99.90
5172;DHT22;2605;49.770;9.868;2022-07-10T02:07:31;13.30;99.90
5172;DHT22;2605;49.770;9.868;2022-07-10T02:09:56;13.30;99.90
5172;DHT22;2605;49.770;9.868;2022-07-10T02:12:22;13.30;99.90
5172;DHT22;2605;49.770;9.868;2022-07-10T02:14:47;13.30;99.90
5172;DHT22;2605;49.770;9.868;2022-07-10T02:17:13;13.30;99.90
5172;DHT22;2605;49.770;9.868;2022-07-10T02:19:38;13.20;99.90
5172;DHT22;2605;49.770;9.868;2022-07-10T02:22:04;13.10;99.90
5172;DHT22;2605;49.770;9.868;2022-07-10T02:24:30;13.00;99.90
5172;DHT22;2605;49.770;9.868;2022-07-10T02:26:55;13.10;99.90
5172;DHT22;2605;49.770;9.868;2022-07-10T02:29:22;13.00;99.90
5172;DHT22;2605;49.770;9.868;2022-07-10T02:31:50;13.20;99.90
5172;DHT22;2605;49.770;9.868;2022-07-10T02:34:15;13.00;99.90
5172;DHT22;2605;49.770;9.868;2022-07-10T02:36:41;12.90;99.90
5172;DHT22;2605;49.770;9.868;2022-07-10T02:39:07;12.80;99.90
5172;DHT22;2605;49.770;9.868;2022-07-10T02:41:33;12.80;99.90
5172;DHT22;2605;49.770;9.868;2022-07-10T02:44:00;12.80;99.90
5172;DHT22;2605;49.770;9.868;2022-07-10T02:46:26;12.70;99.90
5172;DHT22;2605;49.770;9.868;2022-07-10T02:48:51;12.70;99.90
5172;DHT22;2605;49.770;9.868;2022-07-10T02:51:17;12.60;99.90
5172;DHT22;2605;49.770;9.868;2022-07-10T02:53:46;12.60;99.90
5172;DHT22;2605;49.770;9.868;2022-07-10T02:56:11;12.50;99.90
5172;DHT22;2605;49.770;9.868;2022-07-10T02:58:38;12.50;99.90
5172;DHT22;2605;49.770;9.868;2022-07-10T03:01:04;12.40;99.90
5172;DHT22;2605;49.770;9.868;2022-07-10T03:03:30;12.30;99.90
5172;DHT22;2605;49.770;9.868;2022-07-10T03:05:56;12.20;99.90
5172;DHT22;2605;49.770;9.868;2022-07-10T03:08:21;12.10;99.90
5172;DHT22;2605;49.770;9.868;2022-07-10T03:10:50;12.10;99.90
5172;DHT22;2605;49.770;9.868;2022-07-10T03:13:15;12.00;99.90
5172;DHT22;2605;49.770;9.868;2022-07-10T03:15:41;12.00;99.90
5172;DHT22;2605;49.770;9.868;2022-07-10T03:18:06;11.90;99.90
5172;DHT22;2605;49.770;9.868;2022-07-10T03:20:32;11.90;99.90
5172;DHT22;2605;49.770;9.868;2022-07-10T03:22:57;11.90;99.90
5172;DHT22;2605;49.770;9.868;2022-07-10T03:25:22;11.80;99.90
5172;DHT22;2605;49.770;9.868;2022-07-10T03:27:48;11.80;99.90
5172;DHT22;2605;49.770;9.868;2022-07-10T03:30:13;11.70;99.90
5172;DHT22;2605;49.770;9.868;2022-07-10T03:32:39;11.60;99.90
5172;DHT22;2605;49.770;9.868;2022-07-10T03:35:05;11.60;99.90
5172;DHT22;2605;49.770;9.868;2022-07-10T03:37:30;11.60;99.90
5172;DHT22;2605;49.770;9.868;2022-07-10T03:39:56;11.60;99.90
5172;DHT22;2605;49.770;9.868;2022-07-10T03:42:21;11.60;99.90
5172;DHT22;2605;49.770;9.868;2022-07-10T03:44:47;11.50;99.90
5172;DHT22;2605;49.770;9.868;2022-07-10T03:47:12;11.50;99.90
5172;DHT22;2605;49.770;9.868;2022-07-10T03:49:38;11.50;99.90
5172;DHT22;2605;49.770;9.868;2022-07-10T03:52:07;11.60;99.90
5172;DHT22;2605;49.770;9.868;2022-07-10T03:54:33;11.50;99.90
5172;DHT22;2605;49.770;9.868;2022-07-10T03:56:58;11.50;99.90
5172;DHT22;2605;49.770;9.868;2022-07-10T03:59:43;11.50;99.90
5172;DHT22;2605;49.770;9.868;2022-07-10T04:02:08;11.50;99.90
5172;DHT22;2605;49.770;9.868;2022-07-10T04:04:34;11.50;99.90
5172;DHT22;2605;49.770;9.868;2022-07-10T04:06:59;11.50;99.90
5172;DHT22;2605;49.770;9.868;2022-07-10T04:09:25;11.50;99.90
5172;DHT22;2605;49.770;9.868;2022-07-10T04:11:50;11.50;99.90
5172;DHT22;2605;49.770;9.868;2022-07-10T04:14:16;11.60;99.90
5172;DHT22;2605;49.770;9.868;2022-07-10T04:16:41;11.50;99.90
5172;DHT22;2605;49.770;9.868;2022-07-10T04:19:07;11.60;99.90
5172;DHT22;2605;49.770;9.868;2022-07-10T04:21:32;11.60;99.90
5172;DHT22;2605;49.770;9.868;2022-07-10T04:23:58;11.60;99.90
5172;DHT22;2605;49.770;9.868;2022-07-10T04:26:23;11.70;99.90
5172;DHT22;2605;49.770;9.868;2022-07-10T04:28:49;11.70;99.90
5172;DHT22;2605;49.770;9.868;2022-07-10T04:31:14;11.70;99.90
5172;DHT22;2605;49.770;9.868;2022-07-10T04:33:40;11.80;99.90
5172;DHT22;2605;49.770;9.868;2022-07-10T04:36:06;11.90;99.90
5172;DHT22;2605;49.770;9.868;2022-07-10T04:38:32;11.90;99.90
5172;DHT22;2605;49.770;9.868;2022-07-10T04:40:58;11.80;99.90
5172;DHT22;2605;49.770;9.868;2022-07-10T04:43:23;11.80;99.90
5172;DHT22;2605;49.770;9.868;2022-07-10T04:45:49;11.80;99.90
5172;DHT22;2605;49.770;9.868;2022-07-10T04:48:14;11.80;99.90
5172;DHT22;2605;49.770;9.868;2022-07-10T04:50:40;11.90;99.90
5172;DHT22;2605;49.770;9.868;2022-07-10T04:53:05;12.00;99.90
5172;DHT22;2605;49.770;9.868;2022-07-10T04:55:31;12.00;99.90
5172;DHT22;2605;49.770;9.868;2022-07-10T04:57:57;12.10;99.90
5172;DHT22;2605;49.770;9.868;2022-07-10T05:00:23;12.10;99.90
5172;DHT22;2605;49.770;9.868;2022-07-10T05:02:49;12.10;99.90
5172;DHT22;2605;49.770;9.868;2022-07-10T05:05:14;12.10;99.90
5172;DHT22;2605;49.770;9.868;2022-07-10T05:07:40;12.10;99.90
5172;DHT22;2605;49.770;9.868;2022-07-10T05:10:05;12.10;99.90
5172;DHT22;2605;49.770;9.868;2022-07-10T05:12:31;12.10;99.90
5172;DHT22;2605;49.770;9.868;2022-07-10T05:14:56;12.10;99.90
5172;DHT22;2605;49.770;9.868;2022-07-10T05:17:22;12.20;99.90
5172;DHT22;2605;49.770;9.868;2022-07-10T05:19:48;12.30;99.90
5172;DHT22;2605;49.770;9.868;2022-07-10T05:22:14;12.30;99.90
5172;DHT22;2605;49.770;9.868;2022-07-10T05:24:39;12.30;99.90
5172;DHT22;2605;49.770;9.868;2022-07-10T05:27:05;12.40;99.90
5172;DHT22;2605;49.770;9.868;2022-07-10T05:29:31;12.40;99.90
5172;DHT22;2605;49.770;9.868;2022-07-10T05:31:56;12.50;99.90
5172;DHT22;2605;49.770;9.868;2022-07-10T05:34:22;12.50;99.90
5172;DHT22;2605;49.770;9.868;2022-07-10T05:36:47;12.60;99.90
5172;DHT22;2605;49.770;9.868;2022-07-10T05:39:13;12.70;99.90
5172;DHT22;2605;49.770;9.868;2022-07-10T05:41:38;12.80;99.90
5172;DHT22;2605;49.770;9.868;2022-07-10T05:44:04;12.80;99.90
5172;DHT22;2605;49.770;9.868;2022-07-10T05:46:29;12.80;99.90
5172;DHT22;2605;49.770;9.868;2022-07-10T05:48:55;12.90;99.90
5172;DHT22;2605;49.770;9.868;2022-07-10T05:51:21;13.00;99.90
5172;DHT22;2605;49.770;9.868;2022-07-10T05:53:46;13.10;99.90
5172;DHT22;2605;49.770;9.868;2022-07-10T05:56:12;13.20;99.90
5172;DHT22;2605;49.770;9.868;2022-07-10T05:58:37;13.20;99.90
5172;DHT22;2605;49.770;9.868;2022-07-10T06:01:03;13.10;99.90
5172;DHT22;2605;49.770;9.868;2022-07-10T06:03:28;13.10;99.90
5172;DHT22;2605;49.770;9.868;2022-07-10T06:05:54;13.10;99.90
5172;DHT22;2605;49.770;9.868;2022-07-10T06:08:19;13.10;99.90
5172;DHT22;2605;49.770;9.868;2022-07-10T06:10:45;13.00;99.90
5172;DHT22;2605;49.770;9.868;2022-07-10T06:13:11;13.00;99.90
5172;DHT22;2605;49.770;9.868;2022-07-10T06:15:36;13.00;99.90
5172;DHT22;2605;49.770;9.868;2022-07-10T06:18:02;13.00;99.90
5172;DHT22;2605;49.770;9.868;2022-07-10T06:20:28;13.10;99.90
5172;DHT22;2605;49.770;9.868;2022-07-10T06:22:53;13.20;99.90
5172;DHT22;2605;49.770;9.868;2022-07-10T06:25:20;13.30;99.90
5172;DHT22;2605;49.770;9.868;2022-07-10T06:27:45;13.30;99.90
5172;DHT22;2605;49.770;9.868;2022-07-10T06:30:11;13.30;99.90
5172;DHT22;2605;49.770;9.868;2022-07-10T06:32:37;13.50;99.90
5172;DHT22;2605;49.770;9.868;2022-07-10T06:35:03;13.60;99.90
5172;DHT22;2605;49.770;9.868;2022-07-10T06:37:30;13.70;99.90
5172;DHT22;2605;49.770;9.868;2022-07-10T06:39:55;13.90;99.90
5172;DHT22;2605;49.770;9.868;2022-07-10T06:42:21;14.30;99.90
5172;DHT22;2605;49.770;9.868;2022-07-10T06:44:47;14.20;99.90
5172;DHT22;2605;49.770;9.868;2022-07-10T06:47:14;14.20;99.90
5172;DHT22;2605;49.770;9.868;2022-07-10T06:49:59;14.10;99.90
5172;DHT22;2605;49.770;9.868;2022-07-10T06:52:25;14.40;99.90
5172;DHT22;2605;49.770;9.868;2022-07-10T06:54:50;14.50;99.90
5172;DHT22;2605;49.770;9.868;2022-07-10T06:57:17;14.40;99.90
5172;DHT22;2605;49.770;9.868;2022-07-10T06:59:45;14.30;99.90
5172;DHT22;2605;49.770;9.868;2022-07-10T07:02:10;14.20;99.90
5172;DHT22;2605;49.770;9.868;2022-07-10T07:04:36;14.10;99.90
5172;DHT22;2605;49.770;9.868;2022-07-10T07:07:02;13.90;99.90
5172;DHT22;2605;49.770;9.868;2022-07-10T07:09:28;13.90;99.90
5172;DHT22;2605;49.770;9.868;2022-07-10T07:11:53;14.10;99.90
5172;DHT22;2605;49.770;9.868;2022-07-10T07:14:19;14.50;99.90
5172;DHT22;2605;49.770;9.868;2022-07-10T07:16:44;15.00;99.90
5172;DHT22;2605;49.770;9.868;2022-07-10T07:19:12;15.20;99.90
5172;DHT22;2605;49.770;9.868;2022-07-10T07:21:43;15.20;99.90
5172;DHT22;2605;49.770;9.868;2022-07-10T07:24:28;15.20;99.90
5172;DHT22;2605;49.770;9.868;2022-07-10T07:26:53;15.10;99.90
5172;DHT22;2605;49.770;9.868;2022-07-10T07:29:19;15.10;99.90
5172;DHT22;2605;49.770;9.868;2022-07-10T07:31:45;14.80;99.90
5172;DHT22;2605;49.770;9.868;2022-07-10T07:34:10;14.70;99.90
5172;DHT22;2605;49.770;9.868;2022-07-10T07:36:36;14.80;99.90
5172;DHT22;2605;49.770;9.868;2022-07-10T07:39:03;14.80;99.90
5172;DHT22;2605;49.770;9.868;2022-07-10T07:41:28;15.00;99.90
5172;DHT22;2605;49.770;9.868;2022-07-10T07:43:54;15.10;99.90
5172;DHT22;2605;49.770;9.868;2022-07-10T07:46:19;15.10;99.90
5172;DHT22;2605;49.770;9.868;2022-07-10T07:48:45;15.10;99.90
5172;DHT22;2605;49.770;9.868;2022-07-10T07:51:11;15.00;99.90
5172;DHT22;2605;49.770;9.868;2022-07-10T07:53:37;15.00;99.90
5172;DHT22;2605;49.770;9.868;2022-07-10T07:56:03;14.70;99.90
5172;DHT22;2605;49.770;9.868;2022-07-10T07:58:31;14.70;99.90
5172;DHT22;2605;49.770;9.868;2022-07-10T08:00:57;14.80;99.90
5172;DHT22;2605;49.770;9.868;2022-07-10T08:03:23;14.70;99.90
5172;DHT22;2605;49.770;9.868;2022-07-10T08:05:49;14.70;99.90
5172;DHT22;2605;49.770;9.868;2022-07-10T08:08:15;14.70;99.90
5172;DHT22;2605;49.770;9.868;2022-07-10T08:10:41;14.70;99.90
5172;DHT22;2605;49.770;9.868;2022-07-10T08:13:06;14.90;99.90
5172;DHT22;2605;49.770;9.868;2022-07-10T08:15:32;15.10;99.90
5172;DHT22;2605;49.770;9.868;2022-07-10T08:18:00;15.20;99.90
5172;DHT22;2605;49.770;9.868;2022-07-10T08:20:26;15.20;99.90
5172;DHT22;2605;49.770;9.868;2022-07-10T08:22:52;15.40;99.90
5172;DHT22;2605;49.770;9.868;2022-07-10T08:25:21;15.40;99.90
5172;DHT22;2605;49.770;9.868;2022-07-10T08:27:46;15.20;99.90
5172;DHT22;2605;49.770;9.868;2022-07-10T08:30:12;15.20;99.90
5172;DHT22;2605;49.770;9.868;2022-07-10T08:32:38;15.40;99.90
5172;DHT22;2605;49.770;9.868;2022-07-10T08:35:05;16.00;99.90
5172;DHT22;2605;49.770;9.868;2022-07-10T08:37:40;16.20;99.90
5172;DHT22;2605;49.770;9.868;2022-07-10T08:40:08;16.20;99.90
5172;DHT22;2605;49.770;9.868;2022-07-10T08:42:33;16.20;99.90
5172;DHT22;2605;49.770;9.868;2022-07-10T08:44:59;15.90;99.90
5172;DHT22;2605;49.770;9.868;2022-07-10T08:47:25;15.90;99.90
5172;DHT22;2605;49.770;9.868;2022-07-10T08:49:51;16.20;99.90
5172;DHT22;2605;49.770;9.868;2022-07-10T08:52:32;16.20;99.90
5172;DHT22;2605;49.770;9.868;2022-07-10T08:54:59;16.20;99.90
5172;DHT22;2605;49.770;9.868;2022-07-10T08:57:26;16.50;99.90
5172;DHT22;2605;49.770;9.868;2022-07-10T08:59:52;16.70;99.90
5172;DHT22;2605;49.770;9.868;2022-07-10T09:02:19;16.80;99.90
5172;DHT22;2605;49.770;9.868;2022-07-10T09:04:44;16.90;99.90
5172;DHT22;2605;49.770;9.868;2022-07-10T09:07:10;17.00;99.90
5172;DHT22;2605;49.770;9.868;2022-07-10T09:09:52;16.80;99.90
5172;DHT22;2605;49.770;9.868;2022-07-10T09:12:19;16.50;99.90
5172;DHT22;2605;49.770;9.868;2022-07-10T09:14:45;16.50;99.90
5172;DHT22;2605;49.770;9.868;2022-07-10T09:17:10;16.50;99.90
5172;DHT22;2605;49.770;9.868;2022-07-10T09:19:36;16.50;99.90
5172;DHT22;2605;49.770;9.868;2022-07-10T09:22:06;16.30;99.90
5172;DHT22;2605;49.770;9.868;2022-07-10T09:24:36;16.50;99.90
5172;DHT22;2605;49.770;9.868;2022-07-10T09:27:03;16.70;99.90
5172;DHT22;2605;49.770;9.868;2022-07-10T09:29:29;16.60;99.90
5172;DHT22;2605;49.770;9.868;2022-07-10T09:31:57;16.50;99.90
5172;DHT22;2605;49.770;9.868;2022-07-10T09:34:42;16.90;99.90
5172;DHT22;2605;49.770;9.868;2022-07-10T09:40:05;17.20;99.90
5172;DHT22;2605;49.770;9.868;2022-07-10T09:42:42;17.20;99.90
5172;DHT22;2605;49.770;9.868;2022-07-10T09:50:31;17.50;99.90
5172;DHT22;2605;49.770;9.868;2022-07-10T09:53:00;17.00;99.90
5172;DHT22;2605;49.770;9.868;2022-07-10T09:55:28;17.00;99.90
5172;DHT22;2605;49.770;9.868;2022-07-10T10:00:29;17.10;99.90
5172;DHT22;2605;49.770;9.868;2022-07-10T10:02:56;17.50;99.90
5172;DHT22;2605;49.770;9.868;2022-07-10T10:05:43;17.50;99.90
5172;DHT22;2605;49.770;9.868;2022-07-10T10:08:21;17.60;99.90
5172;DHT22;2605;49.770;9.868;2022-07-10T10:10:49;17.60;99.90
5172;DHT22;2605;49.770;9.868;2022-07-10T10:13:21;17.30;99.90
5172;DHT22;2605;49.770;9.868;2022-07-10T10:15:48;17.30;99.90
5172;DHT22;2605;49.770;9.868;2022-07-10T10:18:17;17.30;99.90
5172;DHT22;2605;49.770;9.868;2022-07-10T10:20:45;17.60;99.90
5172;DHT22;2605;49.770;9.868;2022-07-10T10:23:13;17.70;99.90
5172;DHT22;2605;49.770;9.868;2022-07-10T10:25:42;17.80;99.90
5172;DHT22;2605;49.770;9.868;2022-07-10T10:28:09;17.80;99.90
5172;DHT22;2605;49.770;9.868;2022-07-10T10:30:39;18.00;99.90
5172;DHT22;2605;49.770;9.868;2022-07-10T10:36:14;17.50;99.90
5172;DHT22;2605;49.770;9.868;2022-07-10T10:46:34;17.80;99.90
5172;DHT22;2605;49.770;9.868;2022-07-10T10:49:07;17.90;99.90
5172;DHT22;2605;49.770;9.868;2022-07-10T10:51:56;18.00;99.90
5172;DHT22;2605;49.770;9.868;2022-07-10T10:54:21;18.00;99.90
5172;DHT22;2605;49.770;9.868;2022-07-10T10:57:14;17.80;99.90
5172;DHT22;2605;49.770;9.868;2022-07-10T10:59:46;17.60;99.90
5172;DHT22;2605;49.770;9.868;2022-07-10T11:02:25;18.10;99.90
5172;DHT22;2605;49.770;9.868;2022-07-10T11:05:14;19.00;99.90
5172;DHT22;2605;49.770;9.868;2022-07-10T11:08:03;19.20;99.90
5172;DHT22;2605;49.770;9.868;2022-07-10T11:10:43;18.80;99.90
5172;DHT22;2605;49.770;9.868;2022-07-10T11:13:11;18.30;99.90
5172;DHT22;2605;49.770;9.868;2022-07-10T11:15:47;18.10;99.90
5172;DHT22;2605;49.770;9.868;2022-07-10T11:18:21;18.20;99.90
5172;DHT22;2605;49.770;9.868;2022-07-10T11:20:54;18.50;99.90
5172;DHT22;2605;49.770;9.868;2022-07-10T11:26:36;18.10;99.90
5172;DHT22;2605;49.770;9.868;2022-07-10T11:29:06;18.30;99.90
5172;DHT22;2605;49.770;9.868;2022-07-10T11:31:32;18.50;99.90
5172;DHT22;2605;49.770;9.868;2022-07-10T11:34:03;18.80;99.90
5172;DHT22;2605;49.770;9.868;2022-07-10T11:36:29;18.70;99.90
5172;DHT22;2605;49.770;9.868;2022-07-10T11:41:26;18.30;99.90
5172;DHT22;2605;49.770;9.868;2022-07-10T11:43:54;18.30;99.90
5172;DHT22;2605;49.770;9.868;2022-07-10T11:46:25;18.10;99.90
5172;DHT22;2605;49.770;9.868;2022-07-10T11:48:51;18.50;99.90
5172;DHT22;2605;49.770;9.868;2022-07-10T11:51:28;18.80;99.90
5172;DHT22;2605;49.770;9.868;2022-07-10T11:56:29;19.20;99.90
5172;DHT22;2605;49.770;9.868;2022-07-10T11:58:56;18.90;99.90
5172;DHT22;2605;49.770;9.868;2022-07-10T12:01:22;18.70;99.90
5172;DHT22;2605;49.770;9.868;2022-07-10T12:04:05;18.80;99.90
5172;DHT22;2605;49.770;9.868;2022-07-10T12:06:34;18.90;99.90
5172;DHT22;2605;49.770;9.868;2022-07-10T12:09:09;18.60;99.90
5172;DHT22;2605;49.770;9.868;2022-07-10T12:11:35;18.30;99.90
5172;DHT22;2605;49.770;9.868;2022-07-10T12:14:18;18.20;99.90
5172;DHT22;2605;49.770;9.868;2022-07-10T12:19:13;18.10;99.90
5172;DHT22;2605;49.770;9.868;2022-07-10T12:21:41;18.00;99.90
5172;DHT22;2605;49.770;9.868;2022-07-10T12:24:07;17.90;99.90
5172;DHT22;2605;49.770;9.868;2022-07-10T12:26:34;18.20;99.90
5172;DHT22;2605;49.770;9.868;2022-07-10T12:29:01;18.30;99.90
5172;DHT22;2605;49.770;9.868;2022-07-10T12:31:30;18.60;99.90
5172;DHT22;2605;49.770;9.868;2022-07-10T12:34:02;19.00;99.90
5172;DHT22;2605;49.770;9.868;2022-07-10T12:36:50;19.10;99.90
5172;DHT22;2605;49.770;9.868;2022-07-10T12:39:20;19.00;99.90
5172;DHT22;2605;49.770;9.868;2022-07-10T12:42:11;19.00;99.90
5172;DHT22;2605;49.770;9.868;2022-07-10T12:44:39;18.60;99.90
5172;DHT22;2605;49.770;9.868;2022-07-10T12:52:22;18.60;99.90
5172;DHT22;2605;49.770;9.868;2022-07-10T12:54:48;18.50;99.90
5172;DHT22;2605;49.770;9.868;2022-07-10T12:57:14;18.30;99.90
5172;DHT22;2605;49.770;9.868;2022-07-10T12:59:40;18.60;99.90
5172;DHT22;2605;49.770;9.868;2022-07-10T13:02:18;19.10;99.90
5172;DHT22;2605;49.770;9.868;2022-07-10T13:04:57;19.60;99.90
5172;DHT22;2605;49.770;9.868;2022-07-10T13:07:33;20.00;99.90
5172;DHT22;2605;49.770;9.868;2022-07-10T13:10:03;19.90;99.90
5172;DHT22;2605;49.770;9.868;2022-07-10T13:12:29;20.00;99.90
5172;DHT22;2605;49.770;9.868;2022-07-10T13:14:55;19.70;99.90
5172;DHT22;2605;49.770;9.868;2022-07-10T13:17:20;19.20;99.90
5172;DHT22;2605;49.770;9.868;2022-07-10T13:19:46;19.00;99.90
5172;DHT22;2605;49.770;9.868;2022-07-10T13:22:12;19.10;99.90
5172;DHT22;2605;49.770;9.868;2022-07-10T13:24:37;19.00;99.90
5172;DHT22;2605;49.770;9.868;2022-07-10T13:27:06;18.80;99.90
5172;DHT22;2605;49.770;9.868;2022-07-10T13:29:33;19.00;99.90
5172;DHT22;2605;49.770;9.868;2022-07-10T13:31:58;19.30;99.90
5172;DHT22;2605;49.770;9.868;2022-07-10T13:34:24;19.60;99.90
5172;DHT22;2605;49.770;9.868;2022-07-10T13:36:50;19.90;99.90
5172;DHT22;2605;49.770;9.868;2022-07-10T13:39:16;20.00;99.90
5172;DHT22;2605;49.770;9.868;2022-07-10T13:41:42;19.70;99.90
5172;DHT22;2605;49.770;9.868;2022-07-10T13:44:08;20.00;99.90
5172;DHT22;2605;49.770;9.868;2022-07-10T13:46:34;20.10;99.90
5172;DHT22;2605;49.770;9.868;2022-07-10T13:49:01;19.70;99.90
5172;DHT22;2605;49.770;9.868;2022-07-10T13:51:27;19.70;99.90
5172;DHT22;2605;49.770;9.868;2022-07-10T13:53:52;19.90;99.90
5172;DHT22;2605;49.770;9.868;2022-07-10T13:56:18;19.70;99.90
5172;DHT22;2605;49.770;9.868;2022-07-10T13:58:43;19.30;99.90
5172;DHT22;2605;49.770;9.868;2022-07-10T14:01:09;20.70;99.90
5172;DHT22;2605;49.770;9.868;2022-07-10T14:03:34;23.20;99.90
5172;DHT22;2605;49.770;9.868;2022-07-10T14:06:00;24.20;98.90
5172;DHT22;2605;49.770;9.868;2022-07-10T14:08:25;23.40;98.80
5172;DHT22;2605;49.770;9.868;2022-07-10T14:10:51;22.10;99.90
5172;DHT22;2605;49.770;9.868;2022-07-10T14:13:17;20.80;99.90
5172;DHT22;2605;49.770;9.868;2022-07-10T14:15:42;20.30;99.90
5172;DHT22;2605;49.770;9.868;2022-07-10T14:18:11;20.00;99.90
5172;DHT22;2605;49.770;9.868;2022-07-10T14:20:37;19.40;99.90
5172;DHT22;2605;49.770;9.868;2022-07-10T14:23:21;19.50;99.90
5172;DHT22;2605;49.770;9.868;2022-07-10T14:25:47;21.70;99.90
5172;DHT22;2605;49.770;9.868;2022-07-10T14:28:13;23.70;98.80
5172;DHT22;2605;49.770;9.868;2022-07-10T14:30:40;23.80;95.00
5172;DHT22;2605;49.770;9.868;2022-07-10T14:33:05;22.50;99.10
5172;DHT22;2605;49.770;9.868;2022-07-10T14:35:31;23.50;98.80
5172;DHT22;2605;49.770;9.868;2022-07-10T14:37:57;25.30;92.90
5172;DHT22;2605;49.770;9.868;2022-07-10T14:40:22;25.60;88.70
5172;DHT22;2605;49.770;9.868;2022-07-10T14:42:48;24.30;91.40
5172;DHT22;2605;49.770;9.868;2022-07-10T14:45:16;23.90;90.60
5172;DHT22;2605;49.770;9.868;2022-07-10T14:47:42;22.50;95.40
5172;DHT22;2605;49.770;9.868;2022-07-10T14:50:07;21.30;98.50
5172;DHT22;2605;49.770;9.868;2022-07-10T14:52:34;20.30;99.90
5172;DHT22;2605;49.770;9.868;2022-07-10T14:55:02;20.00;99.90
5172;DHT22;2605;49.770;9.868;2022-07-10T14:57:27;20.00;99.90
5172;DHT22;2605;49.770;9.868;2022-07-10T14:59:53;20.40;99.90
5172;DHT22;2605;49.770;9.868;2022-07-10T15:02:18;20.20;99.90
5172;DHT22;2605;49.770;9.868;2022-07-10T15:04:44;19.90;99.90
5172;DHT22;2605;49.770;9.868;2022-07-10T15:07:09;19.80;99.90
5172;DHT22;2605;49.770;9.868;2022-07-10T15:09:35;19.70;99.90
5172;DHT22;2605;49.770;9.868;2022-07-10T15:12:01;19.70;99.90
5172;DHT22;2605;49.770;9.868;2022-07-10T15:14:27;19.70;99.90
5172;DHT22;2605;49.770;9.868;2022-07-10T15:16:54;19.50;99.90
5172;DHT22;2605;49.770;9.868;2022-07-10T15:19:19;19.30;99.90
5172;DHT22;2605;49.770;9.868;2022-07-10T15:21:45;19.30;99.90
5172;DHT22;2605;49.770;9.868;2022-07-10T15:24:10;19.30;99.90
5172;DHT22;2605;49.770;9.868;2022-07-10T15:26:36;19.40;99.90
5172;DHT22;2605;49.770;9.868;2022-07-10T15:29:01;19.30;99.90
5172;DHT22;2605;49.770;9.868;2022-07-10T15:31:27;19.50;99.90
5172;DHT22;2605;49.770;9.868;2022-07-10T15:33:52;19.70;99.90
5172;DHT22;2605;49.770;9.868;2022-07-10T15:36:18;19.70;99.90
5172;DHT22;2605;49.770;9.868;2022-07-10T15:38:44;19.80;99.90
5172;DHT22;2605;49.770;9.868;2022-07-10T15:41:10;19.90;99.90
5172;DHT22;2605;49.770;9.868;2022-07-10T15:43:35;19.60;99.90
5172;DHT22;2605;49.770;9.868;2022-07-10T15:46:01;19.60;99.90
5172;DHT22;2605;49.770;9.868;2022-07-10T15:48:27;19.50;99.90
5172;DHT22;2605;49.770;9.868;2022-07-10T15:50:52;19.30;99.90
5172;DHT22;2605;49.770;9.868;2022-07-10T15:53:19;19.30;99.90
5172;DHT22;2605;49.770;9.868;2022-07-10T15:55:45;19.70;99.90
5172;DHT22;2605;49.770;9.868;2022-07-10T15:58:10;20.70;99.90
5172;DHT22;2605;49.770;9.868;2022-07-10T16:00:38;20.90;99.90
5172;DHT22;2605;49.770;9.868;2022-07-10T16:03:03;20.30;99.90
5172;DHT22;2605;49.770;9.868;2022-07-10T16:05:29;20.80;99.90
5172;DHT22;2605;49.770;9.868;2022-07-10T16:07:54;23.20;99.90
5172;DHT22;2605;49.770;9.868;2022-07-10T16:10:20;24.80;97.00
5172;DHT22;2605;49.770;9.868;2022-07-10T16:12:45;24.00;96.60
5172;DHT22;2605;49.770;9.868;2022-07-10T16:15:11;23.00;99.90
5172;DHT22;2605;49.770;9.868;2022-07-10T16:17:37;21.80;99.90
5172;DHT22;2605;49.770;9.868;2022-07-10T16:20:02;21.20;99.90
5172;DHT22;2605;49.770;9.868;2022-07-10T16:22:30;21.10;99.90
5172;DHT22;2605;49.770;9.868;2022-07-10T16:24:55;20.70;99.90
5172;DHT22;2605;49.770;9.868;2022-07-10T16:27:40;20.30;99.90
5172;DHT22;2605;49.770;9.868;2022-07-10T16:30:06;20.00;99.90
5172;DHT22;2605;49.770;9.868;2022-07-10T16:32:31;19.80;99.90
5172;DHT22;2605;49.770;9.868;2022-07-10T16:34:57;19.60;99.90
5172;DHT22;2605;49.770;9.868;2022-07-10T16:37:25;19.50;99.90
5172;DHT22;2605;49.770;9.868;2022-07-10T16:39:50;19.20;99.90